createdAt,value
2023-06-16T00:01:36.998Z,93853.09
2023-06-16T00:04:07.496Z,93851.00
2023-06-16T00:06:38.320Z,93846.50
2023-06-16T00:09:08.101Z,93852.63
2023-06-16T00:11:34.936Z,93842.00
2023-06-16T00:14:01.554Z,93843.63
2023-06-16T00:16:28.221Z,93843.63
2023-06-16T00:18:59.270Z,93846.25
2023-06-16T00:21:27.139Z,93839.91
2023-06-16T00:23:57.492Z,93840.47
2023-06-16T00:26:27.923Z,93842.34
2023-06-16T00:28:56.890Z,93836.22
2023-06-16T00:31:23.819Z,93839.69
2023-06-16T00:33:50.907Z,93844.72
2023-06-16T00:36:17.712Z,93839.41
2023-06-16T00:38:46.514Z,93846.31
2023-06-16T00:41:15.543Z,93838.38
2023-06-16T00:43:44.557Z,93834.69
2023-06-16T00:46:14.409Z,93832.84
2023-06-16T00:48:41.295Z,93832.06
2023-06-16T00:51:08.261Z,93833.66
2023-06-16T00:53:35.063Z,93821.44
2023-06-16T00:56:01.797Z,93818.53
2023-06-16T00:58:30.771Z,93816.13
2023-06-16T01:00:58.326Z,93814.03
2023-06-16T01:03:28.302Z,93815.66
2023-06-16T01:05:57.809Z,93814.03
2023-06-16T01:09:04.906Z,93810.34
2023-06-16T01:11:38.564Z,93805.81
2023-06-16T01:14:29.712Z,93801.34
2023-06-16T01:16:59.117Z,93806.63
2023-06-16T01:19:43.277Z,93798.69
2023-06-16T01:22:13.590Z,93797.06
2023-06-16T01:24:43.289Z,93792.31
2023-06-16T01:27:10.129Z,93802.38
2023-06-16T01:29:38.933Z,93794.44
2023-06-16T01:32:06.605Z,93796.03
2023-06-16T01:34:33.460Z,93796.03
2023-06-16T01:37:00.149Z,93796.03
2023-06-16T01:39:27.130Z,93796.03
2023-06-16T01:41:53.874Z,93790.72
2023-06-16T01:44:20.706Z,93792.31
2023-06-16T01:46:47.775Z,93787.25
2023-06-16T01:49:16.724Z,93787.25
2023-06-16T01:51:45.633Z,93790.72
2023-06-16T01:54:14.612Z,93785.41
2023-06-16T01:56:41.330Z,93783.56
2023-06-16T01:59:08.108Z,93785.41
2023-06-16T02:01:38.700Z,93785.41
2023-06-16T02:04:14.845Z,93786.22
2023-06-16T02:06:45.143Z,93782.78
2023-06-16T02:09:12.782Z,93790.72
2023-06-16T02:11:39.527Z,93784.59
2023-06-16T02:14:06.167Z,93790.72
2023-06-16T02:16:44.159Z,93789.13
2023-06-16T02:19:11.123Z,93785.41
2023-06-16T02:21:38.262Z,93780.13
2023-06-16T02:24:08.544Z,93783.81
2023-06-16T02:26:36.050Z,93789.13
2023-06-16T02:29:02.954Z,93786.47
2023-06-16T02:31:31.888Z,93793.38
2023-06-16T02:33:58.694Z,93789.13
2023-06-16T02:36:25.428Z,93785.41
2023-06-16T02:38:52.160Z,93784.38
2023-06-16T02:41:19.062Z,93787.03
2023-06-16T02:43:45.752Z,93795.22
2023-06-16T02:46:12.406Z,93788.06
2023-06-16T02:48:44.531Z,93787.03
2023-06-16T02:51:11.239Z,93790.72
2023-06-16T02:53:40.657Z,93782.22
2023-06-16T02:56:08.439Z,93788.06
2023-06-16T02:58:37.634Z,93778.75
2023-06-16T03:01:05.569Z,93784.59
2023-06-16T03:03:33.893Z,93780.13
2023-06-16T03:06:02.904Z,93776.41
2023-06-16T03:08:32.171Z,93786.22
2023-06-16T03:11:03.546Z,93780.91
2023-06-16T03:13:30.240Z,93777.47
2023-06-16T03:15:59.653Z,93780.13
2023-06-16T03:18:26.377Z,93777.47
2023-06-16T03:20:55.742Z,93776.41
2023-06-16T03:23:22.487Z,93781.72
2023-06-16T03:25:51.492Z,93781.72
2023-06-16T03:28:20.823Z,93780.91
2023-06-16T03:30:47.531Z,93780.91
2023-06-16T03:33:16.367Z,93776.41
2023-06-16T03:35:46.331Z,93776.41
2023-06-16T03:38:16.188Z,93774.81
2023-06-16T03:40:45.201Z,93769.50
2023-06-16T03:43:11.893Z,93765.81
2023-06-16T03:45:38.646Z,93771.09
2023-06-16T03:48:08.547Z,93770.28
2023-06-16T03:50:35.350Z,93769.50
2023-06-16T03:53:16.197Z,93757.31
2023-06-16T03:55:44.097Z,93758.91
2023-06-16T03:58:11.795Z,93755.19
2023-06-16T04:00:42.010Z,93753.59
2023-06-16T04:03:10.990Z,93753.59
2023-06-16T04:05:37.862Z,93760.50
2023-06-16T04:08:04.867Z,93748.28
2023-06-16T04:10:31.785Z,93759.69
2023-06-16T04:13:00.736Z,93755.19
2023-06-16T04:15:27.370Z,93749.91
2023-06-16T04:17:54.060Z,93749.09
2023-06-16T04:20:25.456Z,93755.19
2023-06-16T04:22:57.113Z,93749.91
2023-06-16T04:25:23.793Z,93755.19
2023-06-16T04:27:52.671Z,93748.28
2023-06-16T04:30:24.709Z,93751.50
2023-06-16T04:32:52.030Z,93750.69
2023-06-16T04:35:18.825Z,93748.28
2023-06-16T04:37:47.725Z,93749.91
2023-06-16T04:40:14.983Z,93756.81
2023-06-16T04:42:43.193Z,93753.59
2023-06-16T04:45:10.403Z,93745.66
2023-06-16T04:47:37.243Z,93747.25
2023-06-16T04:50:04.138Z,93749.91
2023-06-16T04:52:31.563Z,93744.59
2023-06-16T04:55:00.436Z,93744.59
2023-06-16T04:57:27.356Z,93740.06
2023-06-16T04:59:54.110Z,93746.19
2023-06-16T05:02:21.777Z,93749.91
2023-06-16T05:04:49.065Z,93743.00
2023-06-16T05:07:15.966Z,93741.94
2023-06-16T05:09:42.805Z,93754.69
2023-06-16T05:12:10.069Z,93755.50
2023-06-16T05:14:36.803Z,93748.38
2023-06-16T05:17:03.654Z,93741.00
2023-06-16T05:19:33.035Z,93749.34
2023-06-16T05:22:00.732Z,93750.41
2023-06-16T05:24:27.529Z,93750.81
2023-06-16T05:26:55.872Z,93750.31
2023-06-16T05:29:24.864Z,93754.50
2023-06-16T05:31:52.388Z,93755.47
2023-06-16T05:34:19.386Z,93755.16
2023-06-16T05:36:49.010Z,93761.44
2023-06-16T05:39:15.723Z,93765.22
2023-06-16T05:41:43.024Z,93760.91
2023-06-16T05:44:13.370Z,93756.59
2023-06-16T05:46:45.418Z,93756.25
2023-06-16T05:49:12.123Z,93747.44
2023-06-16T05:51:38.927Z,93752.72
2023-06-16T05:54:08.007Z,93756.41
2023-06-16T05:56:35.033Z,93753.22
2023-06-16T05:59:01.737Z,93762.19
2023-06-16T06:01:30.812Z,93756.31
2023-06-16T06:04:00.139Z,93758.97
2023-06-16T06:06:29.237Z,93756.91
2023-06-16T06:08:56.032Z,93764.25
2023-06-16T06:11:22.732Z,93757.34
2023-06-16T06:13:54.314Z,93756.56
2023-06-16T06:16:24.087Z,93761.03
2023-06-16T06:18:51.368Z,93760.25
2023-06-16T06:21:18.246Z,93761.03
2023-06-16T06:23:45.094Z,93758.97
2023-06-16T06:26:11.824Z,93765.06
2023-06-16T06:28:38.441Z,93759.53
2023-06-16T06:31:05.144Z,93756.91
2023-06-16T06:33:32.313Z,93760.25
2023-06-16T06:35:59.012Z,93764.59
2023-06-16T06:38:25.725Z,93762.94
2023-06-16T06:40:54.603Z,93751.34
2023-06-16T06:43:21.474Z,93750.31
2023-06-16T06:45:49.322Z,93751.44
2023-06-16T06:48:16.204Z,93750.94
2023-06-16T06:50:45.751Z,93745.16
2023-06-16T06:53:12.515Z,93750.00
2023-06-16T06:55:39.185Z,93746.88
2023-06-16T06:58:06.263Z,93746.94
2023-06-16T07:00:32.964Z,93751.28
2023-06-16T07:03:02.292Z,93750.53
2023-06-16T07:05:35.109Z,93747.50
2023-06-16T07:08:05.610Z,93746.78
2023-06-16T07:10:34.097Z,93745.28
2023-06-16T07:13:03.364Z,93752.50
2023-06-16T07:15:30.133Z,93747.03
2023-06-16T07:17:59.090Z,93747.09
2023-06-16T07:20:25.902Z,93753.28
2023-06-16T07:22:54.705Z,93754.16
2023-06-16T07:25:21.338Z,93744.66
2023-06-16T07:27:48.031Z,93744.44
2023-06-16T07:30:17.509Z,93752.22
2023-06-16T07:32:46.604Z,93749.63
2023-06-16T07:35:16.307Z,93752.03
2023-06-16T07:37:43.004Z,93752.34
2023-06-16T07:40:14.275Z,93758.25
2023-06-16T07:42:46.952Z,93760.44
2023-06-16T07:45:14.181Z,93763.88
2023-06-16T07:47:43.634Z,93763.38
2023-06-16T07:50:13.311Z,93763.94
2023-06-16T07:52:40.019Z,93770.28
2023-06-16T07:55:07.341Z,93765.00
2023-06-16T07:57:34.704Z,93768.47
2023-06-16T08:00:03.614Z,93762.91
2023-06-16T08:02:33.016Z,93755.19
2023-06-16T08:05:02.825Z,93762.09
2023-06-16T08:07:31.715Z,93763.22
2023-06-16T08:09:58.535Z,93763.75
2023-06-16T08:12:25.232Z,93760.63
2023-06-16T08:14:51.952Z,93770.19
2023-06-16T08:17:21.732Z,93767.53
2023-06-16T08:19:48.579Z,93765.44
2023-06-16T08:22:17.510Z,93759.09
2023-06-16T08:24:46.410Z,93771.53
2023-06-16T08:27:15.268Z,93764.97
2023-06-16T08:29:42.246Z,93770.28
2023-06-16T08:32:09.102Z,93762.38
2023-06-16T08:34:36.824Z,93767.22
2023-06-16T08:37:14.074Z,93771.69
2023-06-16T08:39:51.766Z,93766.69
2023-06-16T08:42:19.356Z,93764.06
2023-06-16T08:44:48.166Z,93768.31
2023-06-16T08:47:17.262Z,93765.59
2023-06-16T08:49:44.499Z,93760.84
2023-06-16T08:52:11.310Z,93768.31
2023-06-16T08:54:48.993Z,93775.25
2023-06-16T08:57:18.640Z,93770.34
2023-06-16T08:59:46.699Z,93772.72
2023-06-16T09:02:13.817Z,93771.63
2023-06-16T09:04:42.790Z,93777.69
2023-06-16T09:07:10.542Z,93767.81
2023-06-16T09:09:37.253Z,93774.72
2023-06-16T09:12:08.907Z,93775.25
2023-06-16T09:14:38.215Z,93776.03
2023-06-16T09:17:07.139Z,93772.59
2023-06-16T09:19:37.013Z,93778.22
2023-06-16T09:22:09.147Z,93765.78
2023-06-16T09:24:39.445Z,93774.84
2023-06-16T09:27:07.367Z,93767.94
2023-06-16T09:29:34.089Z,93773.78
2023-06-16T09:32:08.431Z,93769.53
2023-06-16T09:34:36.640Z,93770.63
2023-06-16T09:37:10.101Z,93770.63
2023-06-16T09:39:39.101Z,93772.72
2023-06-16T09:42:12.543Z,93768.25
2023-06-16T09:44:40.292Z,93769.03
2023-06-16T09:47:07.160Z,93768.78
2023-06-16T09:49:33.892Z,93770.63
2023-06-16T09:52:00.701Z,93753.66
2023-06-16T09:54:27.945Z,93752.88
2023-06-16T09:56:58.326Z,93756.56
2023-06-16T09:59:27.330Z,93754.16
2023-06-16T10:01:55.600Z,93757.84
2023-06-16T10:04:25.234Z,93750.94
2023-06-16T10:07:02.043Z,93754.66
2023-06-16T10:09:54.916Z,93744.53
2023-06-16T10:12:29.243Z,93751.47
2023-06-16T10:14:56.139Z,93750.91
2023-06-16T10:17:23.024Z,93735.22
2023-06-16T10:19:53.213Z,93735.78
2023-06-16T10:22:20.016Z,93741.06
2023-06-16T10:24:47.777Z,93741.91
2023-06-16T10:27:14.539Z,93735.25
2023-06-16T10:29:41.333Z,93736.09
2023-06-16T10:32:08.482Z,93731.81
2023-06-16T10:34:40.306Z,93738.19
2023-06-16T10:37:09.714Z,93720.16
2023-06-16T10:39:45.031Z,93718.56
2023-06-16T10:42:16.033Z,93718.56
2023-06-16T10:44:45.968Z,93708.72
2023-06-16T10:47:12.693Z,93716.97
2023-06-16T10:50:04.011Z,93708.44
2023-06-16T10:52:36.366Z,93709.50
2023-06-16T10:55:35.797Z,93703.16
2023-06-16T10:58:17.594Z,93706.03
2023-06-16T11:00:47.975Z,93707.31
2023-06-16T11:03:17.668Z,93689.81
2023-06-16T11:05:47.913Z,93692.72
2023-06-16T11:08:16.066Z,93689.81
2023-06-16T11:10:52.340Z,93691.41
2023-06-16T11:13:23.894Z,93684.50
2023-06-16T11:15:50.913Z,93678.13
2023-06-16T11:18:18.824Z,93677.59
2023-06-16T11:20:47.792Z,93672.28
2023-06-16T11:23:14.513Z,93660.56
2023-06-16T11:25:43.650Z,93666.97
2023-06-16T11:28:11.288Z,93663.78
2023-06-16T11:30:40.500Z,93670.69
2023-06-16T11:33:08.102Z,93659.28
2023-06-16T11:35:34.920Z,93656.38
2023-06-16T11:38:04.474Z,93657.19
2023-06-16T11:40:33.453Z,93644.16
2023-06-16T11:43:01.752Z,93642.03
2023-06-16T11:45:31.886Z,93643.66
2023-06-16T11:48:04.532Z,93637.25
2023-06-16T11:50:31.395Z,93641.06
2023-06-16T11:52:58.360Z,93642.34
2023-06-16T11:55:28.310Z,93643.16
2023-06-16T11:57:58.683Z,93639.47
2023-06-16T12:00:27.650Z,93636.53
2023-06-16T12:02:54.935Z,93638.94
2023-06-16T12:05:26.469Z,93639.25
2023-06-16T12:07:53.270Z,93632.63
2023-06-16T12:10:20.678Z,93633.75
2023-06-16T12:12:48.478Z,93636.66
2023-06-16T12:15:26.125Z,93638.03
2023-06-16T12:17:55.775Z,93621.03
2023-06-16T12:20:25.334Z,93618.38
2023-06-16T12:22:55.924Z,93622.41
2023-06-16T12:25:22.890Z,93614.44
2023-06-16T12:27:53.447Z,93603.28
2023-06-16T12:30:21.098Z,93604.06
2023-06-16T12:32:48.271Z,93600.88
2023-06-16T12:35:25.719Z,93600.34
2023-06-16T12:37:55.287Z,93598.75
2023-06-16T12:40:32.288Z,93600.88
2023-06-16T12:43:21.649Z,93593.44
2023-06-16T12:45:53.200Z,93595.56
2023-06-16T12:48:22.304Z,93590.75
2023-06-16T12:50:48.964Z,93602.47
2023-06-16T12:53:15.820Z,93600.88
2023-06-16T12:55:44.911Z,93587.59
2023-06-16T12:58:13.870Z,93604.56
2023-06-16T13:00:43.092Z,93578.84
2023-06-16T13:03:12.191Z,93581.50
2023-06-16T13:05:42.639Z,93580.69
2023-06-16T13:08:09.420Z,93584.94
2023-06-16T13:10:41.560Z,93600.88
2023-06-16T13:13:10.568Z,93596.59
2023-06-16T13:15:37.255Z,93593.97
2023-06-16T13:18:08.456Z,93588.66
2023-06-16T13:20:37.614Z,93583.34
2023-06-16T13:23:04.357Z,93590.25
2023-06-16T13:25:31.034Z,93579.63
2023-06-16T13:27:57.777Z,93582.28
2023-06-16T13:30:24.457Z,93586.28
2023-06-16T13:32:51.197Z,93590.53
2023-06-16T13:35:18.016Z,93597.75
2023-06-16T13:37:45.272Z,93586.31
2023-06-16T13:40:12.281Z,93595.63
2023-06-16T13:42:39.040Z,93591.94
2023-06-16T13:45:06.392Z,93595.09
2023-06-16T13:47:36.575Z,93598.25
2023-06-16T13:50:03.453Z,93592.94
2023-06-16T13:52:30.734Z,93598.81
2023-06-16T13:54:59.618Z,93596.16
2023-06-16T13:57:28.573Z,93583.41
2023-06-16T13:59:55.418Z,93586.06
2023-06-16T14:02:22.143Z,93579.72
2023-06-16T14:04:48.886Z,93573.38
2023-06-16T14:07:15.575Z,93577.06
2023-06-16T14:09:42.278Z,93571.00
2023-06-16T14:12:11.112Z,93577.63
2023-06-16T14:14:37.736Z,93574.47
2023-06-16T14:17:09.053Z,93572.91
2023-06-16T14:19:36.036Z,93576.13
2023-06-16T14:22:03.415Z,93576.13
2023-06-16T14:24:30.598Z,93577.72
2023-06-16T14:26:57.310Z,93581.97
2023-06-16T14:29:23.999Z,93581.97
2023-06-16T14:31:53.020Z,93584.09
2023-06-16T14:34:19.822Z,93589.41
2023-06-16T14:36:48.800Z,93597.88
2023-06-16T14:39:15.510Z,93597.88
2023-06-16T14:41:42.261Z,93608.50
2023-06-16T14:44:09.010Z,93612.72
2023-06-16T14:46:37.832Z,93610.59
2023-06-16T14:49:07.225Z,93613.25
2023-06-16T14:51:38.216Z,93614.56
2023-06-16T14:54:07.771Z,93606.81
2023-06-16T14:56:36.965Z,93611.06
2023-06-16T14:59:06.446Z,93609.44
2023-06-16T15:01:34.030Z,93608.38
2023-06-16T15:04:03.008Z,93604.66
2023-06-16T15:06:31.911Z,93601.94
2023-06-16T15:08:58.918Z,93597.16
2023-06-16T15:11:27.815Z,93604.03
2023-06-16T15:13:58.277Z,93602.16
2023-06-16T15:16:28.287Z,93605.09
2023-06-16T15:18:55.184Z,93603.97
2023-06-16T15:21:23.990Z,93605.03
2023-06-16T15:23:50.813Z,93604.47
2023-06-16T15:26:17.664Z,93602.88
2023-06-16T15:28:44.342Z,93603.41
2023-06-16T15:31:11.517Z,93605.00
2023-06-16T15:33:40.440Z,93603.41
2023-06-16T15:36:08.469Z,93616.13
2023-06-16T15:38:39.264Z,93617.19
2023-06-16T15:41:06.658Z,93619.81
2023-06-16T15:43:33.469Z,93616.63
2023-06-16T15:46:00.778Z,93623.53
2023-06-16T15:48:27.522Z,93624.59
2023-06-16T15:50:56.433Z,93618.72
2023-06-16T15:53:23.264Z,93622.97
2023-06-16T15:55:52.734Z,93615.50
2023-06-16T15:58:19.475Z,93618.72
2023-06-16T16:00:46.150Z,93624.00
2023-06-16T16:03:14.789Z,93620.81
2023-06-16T16:05:41.755Z,93631.44
2023-06-16T16:08:08.515Z,93627.72
2023-06-16T16:10:37.334Z,93619.22
2023-06-16T16:13:04.136Z,93631.41
2023-06-16T16:15:30.958Z,93631.94
2023-06-16T16:17:59.899Z,93638.06
2023-06-16T16:20:27.167Z,93638.84
2023-06-16T16:22:53.993Z,93635.66
2023-06-16T16:25:20.839Z,93638.31
2023-06-16T16:27:47.592Z,93634.84
2023-06-16T16:30:17.035Z,93640.13
2023-06-16T16:32:43.930Z,93640.13
2023-06-16T16:35:10.719Z,93644.66
2023-06-16T16:37:37.618Z,93647.31
2023-06-16T16:40:07.099Z,93642.00
2023-06-16T16:42:33.925Z,93637.75
2023-06-16T16:45:00.665Z,93633.50
2023-06-16T16:47:27.460Z,93633.50
2023-06-16T16:49:58.834Z,93616.22
2023-06-16T16:52:28.392Z,93619.41
2023-06-16T16:54:55.127Z,93618.63
2023-06-16T16:57:21.800Z,93619.69
2023-06-16T16:59:48.441Z,93618.63
2023-06-16T17:02:15.771Z,93618.63
2023-06-16T17:04:42.702Z,93619.41
2023-06-16T17:07:09.511Z,93623.94
2023-06-16T17:09:36.294Z,93631.91
2023-06-16T17:12:03.103Z,93635.03
2023-06-16T17:14:30.157Z,93632.97
2023-06-16T17:16:56.983Z,93648.06
2023-06-16T17:19:25.344Z,93651.53
2023-06-16T17:21:52.313Z,93655.22
2023-06-16T17:24:19.416Z,93663.19
2023-06-16T17:26:49.747Z,93657.31
2023-06-16T17:29:16.908Z,93665.03
2023-06-16T17:31:45.914Z,93671.16
2023-06-16T17:34:12.807Z,93671.16
2023-06-16T17:36:42.530Z,93666.31
2023-06-16T17:39:11.341Z,93667.69
2023-06-16T17:41:38.683Z,93667.69
2023-06-16T17:44:07.742Z,93664.22
2023-06-16T17:46:37.821Z,93660.78
2023-06-16T17:49:08.066Z,93667.69
2023-06-16T17:51:37.946Z,93666.88
2023-06-16T17:54:04.973Z,93667.91
2023-06-16T17:56:34.715Z,93671.63
2023-06-16T17:59:02.421Z,93669.78
2023-06-16T18:01:32.293Z,93666.31
2023-06-16T18:03:59.481Z,93674.28
2023-06-16T18:06:26.149Z,93675.88
2023-06-16T18:08:55.514Z,93675.09
2023-06-16T18:11:22.393Z,93681.44
2023-06-16T18:13:51.377Z,93685.69
2023-06-16T18:16:18.171Z,93690.19
2023-06-16T18:18:44.952Z,93684.09
2023-06-16T18:21:13.996Z,93695.50
2023-06-16T18:23:40.644Z,93695.50
2023-06-16T18:26:07.351Z,93698.41
2023-06-16T18:28:34.271Z,93700.03
2023-06-16T18:31:00.966Z,93700.81
2023-06-16T18:33:28.184Z,93701.84
2023-06-16T18:35:57.187Z,93706.13
2023-06-16T18:38:24.023Z,93708.75
2023-06-16T18:40:50.717Z,93715.94
2023-06-16T18:43:23.008Z,93709.81
2023-06-16T18:45:54.362Z,93709.81
2023-06-16T18:48:23.208Z,93709.28
2023-06-16T18:50:49.950Z,93717.22
2023-06-16T18:53:16.780Z,93725.72
2023-06-16T18:55:44.941Z,93725.72
2023-06-16T18:58:11.752Z,93725.72
2023-06-16T19:00:38.930Z,93728.38
2023-06-16T19:03:06.745Z,93734.50
2023-06-16T19:05:33.682Z,93735.56
2023-06-16T19:08:00.827Z,93733.69
2023-06-16T19:10:27.703Z,93746.97
2023-06-16T19:12:54.547Z,93740.88
2023-06-16T19:15:23.368Z,93733.69
2023-06-16T19:17:51.223Z,93741.66
2023-06-16T19:20:18.397Z,93743.25
2023-06-16T19:22:45.481Z,93741.66
2023-06-16T19:25:14.486Z,93741.66
2023-06-16T19:27:41.294Z,93737.41
2023-06-16T19:30:08.882Z,93736.34
2023-06-16T19:32:36.084Z,93741.66
2023-06-16T19:35:03.364Z,93744.31
2023-06-16T19:37:31.782Z,93746.16
2023-06-16T19:39:59.097Z,93742.69
2023-06-16T19:42:25.772Z,93749.59
2023-06-16T19:44:52.470Z,93750.66
2023-06-16T19:47:21.425Z,93752.25
2023-06-16T19:49:50.918Z,93749.59
2023-06-16T19:52:17.759Z,93752.25
2023-06-16T19:54:44.545Z,93746.97
2023-06-16T19:57:12.156Z,93745.34
2023-06-16T19:59:40.081Z,93754.91
2023-06-16T20:02:10.523Z,93748.00
2023-06-16T20:04:38.762Z,93757.56
2023-06-16T20:07:07.205Z,93755.97
2023-06-16T20:09:34.022Z,93754.38
2023-06-16T20:12:02.914Z,93759.66
2023-06-16T20:14:32.447Z,93762.31
2023-06-16T20:17:00.147Z,93761.28
2023-06-16T20:19:28.080Z,93753.56
2023-06-16T20:21:57.582Z,93761.28
2023-06-16T20:24:25.698Z,93755.97
2023-06-16T20:26:52.658Z,93750.66
2023-06-16T20:29:19.451Z,93743.16
2023-06-16T20:31:47.246Z,93749.88
2023-06-16T20:34:17.235Z,93749.06
2023-06-16T20:36:46.377Z,93758.63
2023-06-16T20:39:18.173Z,93749.06
2023-06-16T20:41:44.987Z,93752.72
2023-06-16T20:44:12.205Z,93755.97
2023-06-16T20:46:41.276Z,93749.06
2023-06-16T20:49:10.046Z,93738.44
2023-06-16T20:51:37.519Z,93747.44
2023-06-16T20:54:04.337Z,93749.25
2023-06-16T20:56:32.666Z,93752.72
2023-06-16T20:59:00.263Z,93759.66
2023-06-16T21:01:30.881Z,93753.56
2023-06-16T21:03:57.965Z,93763.34
2023-06-16T21:06:27.724Z,93764.97
2023-06-16T21:09:02.353Z,93768.66
2023-06-16T21:11:29.955Z,93764.97
2023-06-16T21:13:59.825Z,93769.50
2023-06-16T21:16:32.216Z,93766.84
2023-06-16T21:18:59.104Z,93767.84
2023-06-16T21:21:25.932Z,93768.66
2023-06-16T21:23:57.329Z,93772.34
2023-06-16T21:26:24.287Z,93767.84
2023-06-16T21:28:51.366Z,93758.03
2023-06-16T21:31:20.262Z,93753.56
2023-06-16T21:33:49.429Z,93750.06
2023-06-16T21:36:16.063Z,93744.78
2023-06-16T21:38:44.911Z,93745.81
2023-06-16T21:41:11.882Z,93749.25
2023-06-16T21:43:39.073Z,93745.00
2023-06-16T21:46:06.193Z,93745.81
2023-06-16T21:48:32.942Z,93729.91
2023-06-16T21:50:59.657Z,93726.22
2023-06-16T21:53:26.476Z,93731.50
2023-06-16T21:55:53.307Z,93735.22
2023-06-16T21:58:20.845Z,93740.53
2023-06-16T22:00:50.776Z,93736.00
2023-06-16T22:03:18.873Z,93729.91
2023-06-16T22:05:46.230Z,93724.59
2023-06-16T22:08:13.199Z,93729.91
2023-06-16T22:10:41.124Z,93730.69
2023-06-16T22:13:07.761Z,93739.47
2023-06-16T22:15:34.725Z,93739.69
2023-06-16T22:18:06.142Z,93723.00
2023-06-16T22:20:33.261Z,93727.25
2023-06-16T22:23:02.213Z,93717.69
2023-06-16T22:25:32.453Z,93717.69
2023-06-16T22:27:59.720Z,93713.19
2023-06-16T22:30:28.982Z,93712.41
2023-06-16T22:32:56.404Z,93701.78
2023-06-16T22:35:23.124Z,93707.09
2023-06-16T22:37:51.964Z,93709.75
2023-06-16T22:40:18.809Z,93717.69
2023-06-16T22:42:45.787Z,93711.56
2023-06-16T22:45:13.290Z,93712.41
2023-06-16T22:47:42.887Z,93711.56
2023-06-16T22:50:10.515Z,93701.78
2023-06-16T22:52:40.901Z,93699.91
2023-06-16T22:55:09.115Z,93700.19
2023-06-16T22:57:35.983Z,93698.31
2023-06-16T23:00:03.078Z,93693.81
2023-06-16T23:02:32.574Z,93696.47
2023-06-16T23:04:59.380Z,93695.66
2023-06-16T23:07:26.104Z,93697.53
2023-06-16T23:09:52.760Z,93701.78
2023-06-16T23:12:21.673Z,93702.84
2023-06-16T23:14:51.322Z,93694.88
2023-06-16T23:17:17.976Z,93694.88
2023-06-16T23:19:44.626Z,93693.28
2023-06-16T23:22:15.420Z,93689.56
2023-06-16T23:24:44.834Z,93689.56
2023-06-16T23:27:14.032Z,93687.97
2023-06-16T23:29:43.531Z,93686.91
2023-06-16T23:32:12.329Z,93689.56
2023-06-16T23:34:39.079Z,93683.44
2023-06-16T23:37:06.432Z,93678.16
2023-06-16T23:39:35.470Z,93678.97
2023-06-16T23:42:04.362Z,93678.41
2023-06-16T23:44:34.359Z,93678.97
2023-06-16T23:47:03.408Z,93683.72
2023-06-16T23:49:30.242Z,93683.44
2023-06-16T23:52:00.139Z,93684.28
2023-06-16T23:54:26.859Z,93682.66
2023-06-16T23:57:14.608Z,93682.66
2023-06-16T23:59:41.258Z,93690.06
